Terminal Aerodrome Forecast
Issued by NWS

Home | Current Version | Previous Version | Text Only | Print | Product List | Glossary On
Versions: 1 2 3 4 5 6 7 8 9 10 11 12 13 14 15 16 17 18
000
FTUS42 KTAE 312327
TAFABY
TAF
KABY 312327Z 0100/0124 06003KT 6SM -TSRA BKN040CB
      TEMPO 0100/0102 2SM +TSRA BKN025CB
     FM010200 00000KT 6SM BR BKN250
      TEMPO 0110/0112 5SM BR SCT005
     FM012000 09006KT 3SM TSRA BKN030CB=

USA.gov is the U.S. government's official web portal to all federal, state and local government web resources and services.